KISQ/ISQ METAR and TAF weather

Enter ICAO airport designator
Station Type Date Time Source
KISQ METAR 2020/09/18 06:35 UTC NOAA

KISQ 180635Z AUTO 33003KT 10SM CLR M01/M02 A3032 RMK AO2 T10121024


Station Type Date Time Source
KISQ Decoded METAR 2020/09/18 06:35 UTC NOAA

Manistique, Schoolcraft County Airport, MI, United States (KISQ) 45-58-29N 086-10-19W
Sep 18, 2020 - 02:35 AM EDT / 2020.09.18 0635 UTC
Wind: from the NNW (330 degrees) at 3 MPH (3 KT):0
Visibility: 10 mile(s):0
Sky conditions: clear
Temperature: 29.8 F (-1.2 C)
Dew Point: 27.7 F (-2.4 C)
Relative Humidity: 91%
Pressure (altimeter): 30.32 in. Hg (1026 hPa)
ob: KISQ 180635Z AUTO 33003KT 10SM CLR M01/M02 A3032 RMK AO2 T10121024
cycle: 6

Station Type Date Time Source
KISQ TAF UTC NOAA

Error!

Example: see airport list